sensor_id;sensor_type;location;lat;lon;timestamp;P1;durP1;ratioP1;P2;durP2;ratioP2
51981;SDS011;37998;53.416;6.730;2022-08-19T00:00:17;6.72;;;3.92;;
51981;SDS011;37998;53.416;6.730;2022-08-19T00:02:44;9.90;;;3.58;;
51981;SDS011;37998;53.416;6.730;2022-08-19T00:05:11;11.88;;;4.93;;
51981;SDS011;37998;53.416;6.730;2022-08-19T00:07:38;10.13;;;4.25;;
51981;SDS011;37998;53.416;6.730;2022-08-19T00:10:05;8.40;;;4.10;;
51981;SDS011;37998;53.416;6.730;2022-08-19T00:12:31;6.57;;;4.50;;
51981;SDS011;37998;53.416;6.730;2022-08-19T00:14:58;9.02;;;4.50;;
51981;SDS011;37998;53.416;6.730;2022-08-19T00:17:24;5.63;;;4.35;;
51981;SDS011;37998;53.416;6.730;2022-08-19T00:19:49;10.60;;;4.22;;
51981;SDS011;37998;53.416;6.730;2022-08-19T00:22:15;6.00;;;4.22;;
51981;SDS011;37998;53.416;6.730;2022-08-19T00:24:43;5.00;;;4.38;;
51981;SDS011;37998;53.416;6.730;2022-08-19T00:27:09;5.13;;;3.92;;
51981;SDS011;37998;53.416;6.730;2022-08-19T00:29:34;6.63;;;3.95;;
51981;SDS011;37998;53.416;6.730;2022-08-19T00:32:01;9.63;;;5.13;;
51981;SDS011;37998;53.416;6.730;2022-08-19T00:34:26;6.95;;;4.85;;
51981;SDS011;37998;53.416;6.730;2022-08-19T00:36:53;7.18;;;4.63;;
51981;SDS011;37998;53.416;6.730;2022-08-19T00:39:19;7.53;;;5.53;;
51981;SDS011;37998;53.416;6.730;2022-08-19T00:41:45;6.93;;;5.32;;
51981;SDS011;37998;53.416;6.730;2022-08-19T00:46:45;11.43;;;5.93;;
51981;SDS011;37998;53.416;6.730;2022-08-19T00:51:45;7.78;;;5.60;;
51981;SDS011;37998;53.416;6.730;2022-08-19T00:54:15;13.43;;;5.80;;
51981;SDS011;37998;53.416;6.730;2022-08-19T00:56:42;8.07;;;6.38;;
51981;SDS011;37998;53.416;6.730;2022-08-19T00:59:08;9.57;;;6.28;;
51981;SDS011;37998;53.416;6.730;2022-08-19T01:01:38;9.15;;;5.65;;
51981;SDS011;37998;53.416;6.730;2022-08-19T01:04:05;7.53;;;6.57;;
51981;SDS011;37998;53.416;6.730;2022-08-19T01:06:32;11.18;;;6.18;;
51981;SDS011;37998;53.416;6.730;2022-08-19T01:09:00;7.47;;;6.10;;
51981;SDS011;37998;53.416;6.730;2022-08-19T01:11:27;13.02;;;6.22;;
51981;SDS011;37998;53.416;6.730;2022-08-19T01:13:53;7.40;;;6.55;;
51981;SDS011;37998;53.416;6.730;2022-08-19T01:16:20;8.88;;;6.40;;
51981;SDS011;37998;53.416;6.730;2022-08-19T01:18:48;11.00;;;7.15;;
51981;SDS011;37998;53.416;6.730;2022-08-19T01:21:18;7.25;;;6.45;;
51981;SDS011;37998;53.416;6.730;2022-08-19T01:23:56;12.93;;;7.40;;
51981;SDS011;37998;53.416;6.730;2022-08-19T01:26:23;12.68;;;7.18;;
51981;SDS011;37998;53.416;6.730;2022-08-19T01:28:52;8.30;;;6.97;;
51981;SDS011;37998;53.416;6.730;2022-08-19T01:31:21;10.70;;;7.03;;
51981;SDS011;37998;53.416;6.730;2022-08-19T01:33:50;9.10;;;7.28;;
51981;SDS011;37998;53.416;6.730;2022-08-19T01:36:22;11.57;;;7.80;;
51981;SDS011;37998;53.416;6.730;2022-08-19T01:38:51;11.77;;;7.30;;
51981;SDS011;37998;53.416;6.730;2022-08-19T01:41:17;13.60;;;8.02;;
51981;SDS011;37998;53.416;6.730;2022-08-19T01:43:43;11.13;;;7.88;;
51981;SDS011;37998;53.416;6.730;2022-08-19T01:46:09;9.60;;;8.23;;
51981;SDS011;37998;53.416;6.730;2022-08-19T01:48:36;9.05;;;7.97;;
51981;SDS011;37998;53.416;6.730;2022-08-19T01:51:03;12.18;;;8.07;;
51981;SDS011;37998;53.416;6.730;2022-08-19T01:53:29;18.95;;;8.80;;
51981;SDS011;37998;53.416;6.730;2022-08-19T01:55:55;10.38;;;8.52;;
51981;SDS011;37998;53.416;6.730;2022-08-19T01:58:22;11.95;;;8.23;;
51981;SDS011;37998;53.416;6.730;2022-08-19T02:00:51;9.32;;;7.57;;
51981;SDS011;37998;53.416;6.730;2022-08-19T02:03:17;11.73;;;8.32;;
51981;SDS011;37998;53.416;6.730;2022-08-19T02:05:43;22.70;;;8.77;;
51981;SDS011;37998;53.416;6.730;2022-08-19T02:08:09;9.40;;;8.48;;
51981;SDS011;37998;53.416;6.730;2022-08-19T02:10:38;10.32;;;8.38;;
51981;SDS011;37998;53.416;6.730;2022-08-19T02:13:06;13.07;;;8.68;;
51981;SDS011;37998;53.416;6.730;2022-08-19T02:15:31;11.90;;;9.00;;
51981;SDS011;37998;53.416;6.730;2022-08-19T02:17:57;9.77;;;8.80;;
51981;SDS011;37998;53.416;6.730;2022-08-19T02:20:23;14.10;;;8.73;;
51981;SDS011;37998;53.416;6.730;2022-08-19T02:22:49;9.77;;;8.40;;
51981;SDS011;37998;53.416;6.730;2022-08-19T02:25:15;11.07;;;8.50;;
51981;SDS011;37998;53.416;6.730;2022-08-19T02:27:41;10.60;;;8.82;;
51981;SDS011;37998;53.416;6.730;2022-08-19T02:30:09;11.50;;;8.70;;
51981;SDS011;37998;53.416;6.730;2022-08-19T02:32:37;12.05;;;9.38;;
51981;SDS011;37998;53.416;6.730;2022-08-19T02:35:04;12.65;;;9.35;;
51981;SDS011;37998;53.416;6.730;2022-08-19T02:37:30;10.95;;;8.60;;
51981;SDS011;37998;53.416;6.730;2022-08-19T02:40:14;9.57;;;8.50;;
51981;SDS011;37998;53.416;6.730;2022-08-19T02:42:42;11.27;;;8.95;;
51981;SDS011;37998;53.416;6.730;2022-08-19T02:45:08;9.80;;;8.52;;
51981;SDS011;37998;53.416;6.730;2022-08-19T02:47:34;11.48;;;8.95;;
51981;SDS011;37998;53.416;6.730;2022-08-19T02:50:01;9.88;;;8.77;;
51981;SDS011;37998;53.416;6.730;2022-08-19T02:52:27;12.52;;;9.05;;
51981;SDS011;37998;53.416;6.730;2022-08-19T02:54:53;10.77;;;9.50;;
51981;SDS011;37998;53.416;6.730;2022-08-19T02:57:21;11.10;;;9.15;;
51981;SDS011;37998;53.416;6.730;2022-08-19T02:59:47;14.85;;;9.18;;
51981;SDS011;37998;53.416;6.730;2022-08-19T03:02:13;11.50;;;9.05;;
51981;SDS011;37998;53.416;6.730;2022-08-19T03:04:39;14.02;;;8.93;;
51981;SDS011;37998;53.416;6.730;2022-08-19T03:07:04;13.70;;;9.98;;
51981;SDS011;37998;53.416;6.730;2022-08-19T03:09:30;11.07;;;9.00;;
51981;SDS011;37998;53.416;6.730;2022-08-19T03:11:56;12.55;;;9.00;;
51981;SDS011;37998;53.416;6.730;2022-08-19T03:14:21;11.15;;;9.40;;
51981;SDS011;37998;53.416;6.730;2022-08-19T03:16:51;14.45;;;10.02;;
51981;SDS011;37998;53.416;6.730;2022-08-19T03:19:18;12.13;;;9.27;;
51981;SDS011;37998;53.416;6.730;2022-08-19T03:21:46;15.43;;;9.48;;
51981;SDS011;37998;53.416;6.730;2022-08-19T03:24:12;10.77;;;8.45;;
51981;SDS011;37998;53.416;6.730;2022-08-19T03:26:39;13.23;;;9.32;;
51981;SDS011;37998;53.416;6.730;2022-08-19T03:29:07;13.25;;;9.10;;
51981;SDS011;37998;53.416;6.730;2022-08-19T03:31:35;10.57;;;9.27;;
51981;SDS011;37998;53.416;6.730;2022-08-19T03:34:00;11.73;;;8.90;;
51981;SDS011;37998;53.416;6.730;2022-08-19T03:36:26;12.02;;;9.75;;
51981;SDS011;37998;53.416;6.730;2022-08-19T03:38:53;12.07;;;9.35;;
51981;SDS011;37998;53.416;6.730;2022-08-19T03:41:22;10.98;;;9.60;;
51981;SDS011;37998;53.416;6.730;2022-08-19T03:43:52;9.95;;;8.95;;
51981;SDS011;37998;53.416;6.730;2022-08-19T03:46:20;12.70;;;9.68;;
51981;SDS011;37998;53.416;6.730;2022-08-19T03:48:50;11.48;;;9.90;;
51981;SDS011;37998;53.416;6.730;2022-08-19T03:51:20;12.77;;;10.45;;
51981;SDS011;37998;53.416;6.730;2022-08-19T03:53:50;10.95;;;9.95;;
51981;SDS011;37998;53.416;6.730;2022-08-19T03:56:17;17.73;;;9.38;;
51981;SDS011;37998;53.416;6.730;2022-08-19T03:58:42;11.90;;;9.65;;
51981;SDS011;37998;53.416;6.730;2022-08-19T04:01:10;13.38;;;10.20;;
51981;SDS011;37998;53.416;6.730;2022-08-19T04:03:38;12.10;;;10.80;;
51981;SDS011;37998;53.416;6.730;2022-08-19T04:08:39;10.52;;;9.40;;
51981;SDS011;37998;53.416;6.730;2022-08-19T04:11:09;10.18;;;9.10;;
51981;SDS011;37998;53.416;6.730;2022-08-19T04:13:37;11.88;;;9.10;;
51981;SDS011;37998;53.416;6.730;2022-08-19T04:16:03;10.13;;;9.07;;
51981;SDS011;37998;53.416;6.730;2022-08-19T04:18:29;11.65;;;8.60;;
51981;SDS011;37998;53.416;6.730;2022-08-19T04:20:56;11.00;;;8.68;;
51981;SDS011;37998;53.416;6.730;2022-08-19T04:23:22;11.10;;;8.75;;
51981;SDS011;37998;53.416;6.730;2022-08-19T04:25:48;11.98;;;9.25;;
51981;SDS011;37998;53.416;6.730;2022-08-19T04:28:14;10.27;;;8.85;;
51981;SDS011;37998;53.416;6.730;2022-08-19T04:30:44;12.35;;;9.27;;
51981;SDS011;37998;53.416;6.730;2022-08-19T04:33:12;10.27;;;8.53;;
51981;SDS011;37998;53.416;6.730;2022-08-19T04:35:40;10.48;;;9.10;;
51981;SDS011;37998;53.416;6.730;2022-08-19T04:38:08;12.63;;;9.75;;
51981;SDS011;37998;53.416;6.730;2022-08-19T04:40:39;11.05;;;8.88;;
51981;SDS011;37998;53.416;6.730;2022-08-19T04:43:31;10.68;;;8.80;;
51981;SDS011;37998;53.416;6.730;2022-08-19T04:45:57;10.10;;;9.10;;
51981;SDS011;37998;53.416;6.730;2022-08-19T04:48:23;10.18;;;9.13;;
51981;SDS011;37998;53.416;6.730;2022-08-19T04:50:53;13.38;;;9.10;;
51981;SDS011;37998;53.416;6.730;2022-08-19T04:53:31;10.85;;;9.23;;
51981;SDS011;37998;53.416;6.730;2022-08-19T04:55:59;12.55;;;9.40;;
51981;SDS011;37998;53.416;6.730;2022-08-19T04:58:28;10.77;;;9.60;;
51981;SDS011;37998;53.416;6.730;2022-08-19T05:00:54;11.02;;;9.50;;
51981;SDS011;37998;53.416;6.730;2022-08-19T05:03:20;10.82;;;9.18;;
51981;SDS011;37998;53.416;6.730;2022-08-19T05:05:47;13.85;;;9.75;;
51981;SDS011;37998;53.416;6.730;2022-08-19T05:08:14;10.10;;;9.00;;
51981;SDS011;37998;53.416;6.730;2022-08-19T05:10:49;21.83;;;10.63;;
51981;SDS011;37998;53.416;6.730;2022-08-19T05:13:17;11.57;;;9.40;;
51981;SDS011;37998;53.416;6.730;2022-08-19T05:15:53;11.25;;;9.82;;
51981;SDS011;37998;53.416;6.730;2022-08-19T05:18:23;11.50;;;9.32;;
51981;SDS011;37998;53.416;6.730;2022-08-19T05:21:08;11.90;;;9.15;;
51981;SDS011;37998;53.416;6.730;2022-08-19T05:23:54;11.85;;;9.88;;
51981;SDS011;37998;53.416;6.730;2022-08-19T05:26:19;13.63;;;10.40;;
51981;SDS011;37998;53.416;6.730;2022-08-19T05:28:45;12.15;;;10.85;;
51981;SDS011;37998;53.416;6.730;2022-08-19T05:31:11;12.43;;;10.98;;
51981;SDS011;37998;53.416;6.730;2022-08-19T05:33:37;14.60;;;10.57;;
51981;SDS011;37998;53.416;6.730;2022-08-19T05:36:04;13.52;;;11.52;;
51981;SDS011;37998;53.416;6.730;2022-08-19T05:38:32;13.07;;;10.90;;
51981;SDS011;37998;53.416;6.730;2022-08-19T05:40:58;13.90;;;10.38;;
51981;SDS011;37998;53.416;6.730;2022-08-19T05:43:24;12.55;;;10.57;;
51981;SDS011;37998;53.416;6.730;2022-08-19T05:45:50;16.02;;;11.18;;
51981;SDS011;37998;53.416;6.730;2022-08-19T05:48:16;18.55;;;10.50;;
51981;SDS011;37998;53.416;6.730;2022-08-19T05:50:45;12.57;;;9.00;;
51981;SDS011;37998;53.416;6.730;2022-08-19T05:53:11;11.40;;;9.93;;
51981;SDS011;37998;53.416;6.730;2022-08-19T05:55:38;11.88;;;10.13;;
51981;SDS011;37998;53.416;6.730;2022-08-19T05:58:04;12.88;;;10.15;;
51981;SDS011;37998;53.416;6.730;2022-08-19T06:00:32;10.95;;;9.23;;
51981;SDS011;37998;53.416;6.730;2022-08-19T06:02:58;13.95;;;10.52;;
51981;SDS011;37998;53.416;6.730;2022-08-19T06:05:28;11.52;;;9.98;;
51981;SDS011;37998;53.416;6.730;2022-08-19T06:07:54;13.82;;;9.93;;
51981;SDS011;37998;53.416;6.730;2022-08-19T06:10:20;11.23;;;10.02;;
51981;SDS011;37998;53.416;6.730;2022-08-19T06:12:46;13.27;;;9.35;;
51981;SDS011;37998;53.416;6.730;2022-08-19T06:15:13;12.05;;;9.27;;
51981;SDS011;37998;53.416;6.730;2022-08-19T06:17:39;10.90;;;9.82;;
51981;SDS011;37998;53.416;6.730;2022-08-19T06:20:07;11.27;;;9.27;;
51981;SDS011;37998;53.416;6.730;2022-08-19T06:22:38;13.65;;;9.30;;
51981;SDS011;37998;53.416;6.730;2022-08-19T06:25:09;10.50;;;8.60;;
51981;SDS011;37998;53.416;6.730;2022-08-19T06:27:35;15.63;;;9.77;;
51981;SDS011;37998;53.416;6.730;2022-08-19T06:30:02;11.45;;;9.98;;
51981;SDS011;37998;53.416;6.730;2022-08-19T06:32:28;12.35;;;9.75;;
51981;SDS011;37998;53.416;6.730;2022-08-19T06:34:54;11.20;;;9.73;;
51981;SDS011;37998;53.416;6.730;2022-08-19T06:37:20;12.30;;;8.95;;
51981;SDS011;37998;53.416;6.730;2022-08-19T06:39:46;11.30;;;9.13;;
51981;SDS011;37998;53.416;6.730;2022-08-19T06:42:12;11.60;;;9.07;;
51981;SDS011;37998;53.416;6.730;2022-08-19T06:44:41;9.32;;;8.32;;
51981;SDS011;37998;53.416;6.730;2022-08-19T06:47:10;12.23;;;9.70;;
51981;SDS011;37998;53.416;6.730;2022-08-19T06:49:37;11.15;;;9.40;;
51981;SDS011;37998;53.416;6.730;2022-08-19T06:52:03;12.35;;;9.18;;
51981;SDS011;37998;53.416;6.730;2022-08-19T06:54:30;9.63;;;8.23;;
51981;SDS011;37998;53.416;6.730;2022-08-19T06:56:56;11.23;;;8.50;;
51981;SDS011;37998;53.416;6.730;2022-08-19T06:59:24;10.93;;;8.95;;
51981;SDS011;37998;53.416;6.730;2022-08-19T07:01:53;11.82;;;9.18;;
51981;SDS011;37998;53.416;6.730;2022-08-19T07:04:22;10.52;;;8.80;;
51981;SDS011;37998;53.416;6.730;2022-08-19T07:06:50;10.30;;;8.70;;
51981;SDS011;37998;53.416;6.730;2022-08-19T07:09:21;10.73;;;9.05;;
51981;SDS011;37998;53.416;6.730;2022-08-19T07:11:49;12.23;;;9.07;;
51981;SDS011;37998;53.416;6.730;2022-08-19T07:14:18;13.02;;;9.70;;
51981;SDS011;37998;53.416;6.730;2022-08-19T07:16:48;16.08;;;9.48;;
51981;SDS011;37998;53.416;6.730;2022-08-19T07:19:15;11.65;;;10.30;;
51981;SDS011;37998;53.416;6.730;2022-08-19T07:21:42;11.88;;;10.52;;
51981;SDS011;37998;53.416;6.730;2022-08-19T07:24:08;12.82;;;10.40;;
51981;SDS011;37998;53.416;6.730;2022-08-19T07:26:37;13.05;;;10.35;;
51981;SDS011;37998;53.416;6.730;2022-08-19T07:29:05;12.02;;;10.38;;
51981;SDS011;37998;53.416;6.730;2022-08-19T07:31:31;12.95;;;11.00;;
51981;SDS011;37998;53.416;6.730;2022-08-19T07:34:02;14.07;;;11.02;;
51981;SDS011;37998;53.416;6.730;2022-08-19T07:36:32;13.50;;;11.23;;
51981;SDS011;37998;53.416;6.730;2022-08-19T07:39:00;12.35;;;11.15;;
51981;SDS011;37998;53.416;6.730;2022-08-19T07:41:29;13.65;;;10.48;;
51981;SDS011;37998;53.416;6.730;2022-08-19T07:43:56;12.52;;;9.73;;
51981;SDS011;37998;53.416;6.730;2022-08-19T07:46:23;12.25;;;10.00;;
51981;SDS011;37998;53.416;6.730;2022-08-19T07:48:49;11.45;;;9.43;;
51981;SDS011;37998;53.416;6.730;2022-08-19T07:51:16;12.07;;;9.85;;
51981;SDS011;37998;53.416;6.730;2022-08-19T07:53:44;11.65;;;10.05;;
51981;SDS011;37998;53.416;6.730;2022-08-19T07:56:12;11.00;;;9.82;;
51981;SDS011;37998;53.416;6.730;2022-08-19T07:58:40;12.85;;;9.30;;
51981;SDS011;37998;53.416;6.730;2022-08-19T08:01:08;12.60;;;10.65;;
51981;SDS011;37998;53.416;6.730;2022-08-19T08:03:36;18.77;;;10.57;;
51981;SDS011;37998;53.416;6.730;2022-08-19T08:06:21;13.23;;;10.38;;
51981;SDS011;37998;53.416;6.730;2022-08-19T08:09:08;11.10;;;9.40;;
51981;SDS011;37998;53.416;6.730;2022-08-19T08:11:59;12.55;;;9.65;;
51981;SDS011;37998;53.416;6.730;2022-08-19T08:14:33;13.57;;;9.25;;
51981;SDS011;37998;53.416;6.730;2022-08-19T08:17:20;18.52;;;10.10;;
51981;SDS011;37998;53.416;6.730;2022-08-19T08:19:48;12.15;;;9.70;;
51981;SDS011;37998;53.416;6.730;2022-08-19T08:22:15;11.35;;;10.15;;
51981;SDS011;37998;53.416;6.730;2022-08-19T08:25:12;11.75;;;9.93;;
51981;SDS011;37998;53.416;6.730;2022-08-19T08:27:44;11.45;;;9.82;;
51981;SDS011;37998;53.416;6.730;2022-08-19T08:30:12;13.07;;;11.68;;
51981;SDS011;37998;53.416;6.730;2022-08-19T08:32:40;11.43;;;10.05;;
51981;SDS011;37998;53.416;6.730;2022-08-19T08:35:07;11.70;;;10.23;;
51981;SDS011;37998;53.416;6.730;2022-08-19T08:37:38;13.57;;;11.52;;
51981;SDS011;37998;53.416;6.730;2022-08-19T08:40:08;11.98;;;10.77;;
51981;SDS011;37998;53.416;6.730;2022-08-19T08:42:40;12.45;;;10.35;;
51981;SDS011;37998;53.416;6.730;2022-08-19T08:45:14;12.32;;;11.10;;
51981;SDS011;37998;53.416;6.730;2022-08-19T08:47:44;16.05;;;10.93;;
51981;SDS011;37998;53.416;6.730;2022-08-19T08:50:18;14.95;;;9.82;;
51981;SDS011;37998;53.416;6.730;2022-08-19T08:52:49;12.77;;;9.68;;
51981;SDS011;37998;53.416;6.730;2022-08-19T08:55:19;10.05;;;8.98;;
51981;SDS011;37998;53.416;6.730;2022-08-19T09:00:34;11.30;;;9.77;;
51981;SDS011;37998;53.416;6.730;2022-08-19T09:03:26;10.00;;;9.00;;
51981;SDS011;37998;53.416;6.730;2022-08-19T09:05:57;10.32;;;8.57;;
51981;SDS011;37998;53.416;6.730;2022-08-19T09:08:43;9.10;;;7.30;;
51981;SDS011;37998;53.416;6.730;2022-08-19T09:11:42;11.15;;;8.40;;
51981;SDS011;37998;53.416;6.730;2022-08-19T09:14:34;10.70;;;9.60;;
51981;SDS011;37998;53.416;6.730;2022-08-19T09:17:06;8.98;;;8.15;;
51981;SDS011;37998;53.416;6.730;2022-08-19T09:19:34;10.43;;;7.28;;
51981;SDS011;37998;53.416;6.730;2022-08-19T09:22:11;9.85;;;8.43;;
51981;SDS011;37998;53.416;6.730;2022-08-19T09:24:37;10.82;;;8.40;;
51981;SDS011;37998;53.416;6.730;2022-08-19T09:27:03;13.30;;;10.20;;
51981;SDS011;37998;53.416;6.730;2022-08-19T09:29:29;7.47;;;6.78;;
51981;SDS011;37998;53.416;6.730;2022-08-19T09:31:55;8.95;;;6.45;;
51981;SDS011;37998;53.416;6.730;2022-08-19T09:34:21;9.02;;;7.22;;
51981;SDS011;37998;53.416;6.730;2022-08-19T09:36:47;8.18;;;7.38;;
51981;SDS011;37998;53.416;6.730;2022-08-19T09:39:14;8.65;;;6.65;;
51981;SDS011;37998;53.416;6.730;2022-08-19T09:41:40;8.55;;;6.65;;
51981;SDS011;37998;53.416;6.730;2022-08-19T09:44:05;9.70;;;7.15;;
51981;SDS011;37998;53.416;6.730;2022-08-19T09:46:31;9.15;;;7.00;;
51981;SDS011;37998;53.416;6.730;2022-08-19T09:48:57;8.07;;;7.32;;
51981;SDS011;37998;53.416;6.730;2022-08-19T09:51:25;7.72;;;6.22;;
51981;SDS011;37998;53.416;6.730;2022-08-19T09:53:53;6.10;;;5.25;;
51981;SDS011;37998;53.416;6.730;2022-08-19T09:56:20;8.23;;;6.35;;
51981;SDS011;37998;53.416;6.730;2022-08-19T09:58:47;8.18;;;6.85;;
51981;SDS011;37998;53.416;6.730;2022-08-19T10:01:19;9.27;;;6.65;;
51981;SDS011;37998;53.416;6.730;2022-08-19T10:03:49;8.30;;;6.35;;
51981;SDS011;37998;53.416;6.730;2022-08-19T10:06:18;7.40;;;5.40;;
51981;SDS011;37998;53.416;6.730;2022-08-19T10:08:44;10.02;;;5.63;;
51981;SDS011;37998;53.416;6.730;2022-08-19T10:11:10;7.03;;;6.32;;
51981;SDS011;37998;53.416;6.730;2022-08-19T10:13:36;9.18;;;5.95;;
51981;SDS011;37998;53.416;6.730;2022-08-19T10:16:07;5.57;;;5.07;;
51981;SDS011;37998;53.416;6.730;2022-08-19T10:18:34;7.80;;;5.88;;
51981;SDS011;37998;53.416;6.730;2022-08-19T10:21:03;6.50;;;5.90;;
51981;SDS011;37998;53.416;6.730;2022-08-19T10:23:33;7.57;;;6.13;;
51981;SDS011;37998;53.416;6.730;2022-08-19T10:26:01;7.97;;;6.63;;
51981;SDS011;37998;53.416;6.730;2022-08-19T10:28:28;6.68;;;5.97;;
51981;SDS011;37998;53.416;6.730;2022-08-19T10:30:54;8.90;;;7.25;;
51981;SDS011;37998;53.416;6.730;2022-08-19T10:33:19;7.57;;;6.10;;
51981;SDS011;37998;53.416;6.730;2022-08-19T10:35:45;8.27;;;6.85;;
51981;SDS011;37998;53.416;6.730;2022-08-19T10:38:11;9.98;;;8.98;;
51981;SDS011;37998;53.416;6.730;2022-08-19T10:40:37;11.55;;;9.02;;
51981;SDS011;37998;53.416;6.730;2022-08-19T10:43:03;9.93;;;8.10;;
51981;SDS011;37998;53.416;6.730;2022-08-19T10:45:29;9.95;;;7.75;;
51981;SDS011;37998;53.416;6.730;2022-08-19T10:47:55;10.98;;;8.25;;
51981;SDS011;37998;53.416;6.730;2022-08-19T10:50:21;9.73;;;8.70;;
51981;SDS011;37998;53.416;6.730;2022-08-19T10:53:06;10.20;;;9.15;;
51981;SDS011;37998;53.416;6.730;2022-08-19T10:55:35;10.65;;;8.50;;
51981;SDS011;37998;53.416;6.730;2022-08-19T10:58:21;10.10;;;8.90;;
51981;SDS011;37998;53.416;6.730;2022-08-19T11:00:52;11.75;;;9.23;;
51981;SDS011;37998;53.416;6.730;2022-08-19T11:03:19;8.73;;;7.82;;
51981;SDS011;37998;53.416;6.730;2022-08-19T11:05:45;7.97;;;7.18;;
51981;SDS011;37998;53.416;6.730;2022-08-19T11:08:10;9.07;;;7.95;;
51981;SDS011;37998;53.416;6.730;2022-08-19T11:10:37;10.60;;;9.40;;
51981;SDS011;37998;53.416;6.730;2022-08-19T11:13:06;11.48;;;10.25;;
51981;SDS011;37998;53.416;6.730;2022-08-19T11:15:31;10.57;;;9.57;;
51981;SDS011;37998;53.416;6.730;2022-08-19T11:17:58;9.90;;;7.75;;
51981;SDS011;37998;53.416;6.730;2022-08-19T11:20:23;8.27;;;6.22;;
51981;SDS011;37998;53.416;6.730;2022-08-19T11:22:51;8.15;;;5.57;;
51981;SDS011;37998;53.416;6.730;2022-08-19T11:25:18;9.85;;;7.90;;
51981;SDS011;37998;53.416;6.730;2022-08-19T11:27:44;10.95;;;9.43;;
51981;SDS011;37998;53.416;6.730;2022-08-19T11:30:11;11.75;;;9.18;;
51981;SDS011;37998;53.416;6.730;2022-08-19T11:32:38;10.15;;;9.15;;
51981;SDS011;37998;53.416;6.730;2022-08-19T11:35:04;12.40;;;11.20;;
51981;SDS011;37998;53.416;6.730;2022-08-19T11:37:30;13.10;;;9.80;;
51981;SDS011;37998;53.416;6.730;2022-08-19T11:39:56;10.57;;;9.35;;
51981;SDS011;37998;53.416;6.730;2022-08-19T11:42:22;12.90;;;10.93;;
51981;SDS011;37998;53.416;6.730;2022-08-19T11:45:06;11.70;;;8.50;;
51981;SDS011;37998;53.416;6.730;2022-08-19T11:47:32;12.13;;;10.95;;
51981;SDS011;37998;53.416;6.730;2022-08-19T11:49:58;14.18;;;12.80;;
51981;SDS011;37998;53.416;6.730;2022-08-19T11:52:24;13.80;;;12.25;;
51981;SDS011;37998;53.416;6.730;2022-08-19T11:54:50;18.80;;;16.77;;
51981;SDS011;37998;53.416;6.730;2022-08-19T11:57:15;16.75;;;14.82;;
51981;SDS011;37998;53.416;6.730;2022-08-19T11:59:42;17.33;;;15.45;;
51981;SDS011;37998;53.416;6.730;2022-08-19T12:02:12;17.15;;;15.35;;
51981;SDS011;37998;53.416;6.730;2022-08-19T12:04:40;17.65;;;15.88;;
51981;SDS011;37998;53.416;6.730;2022-08-19T12:07:05;19.15;;;17.17;;
51981;SDS011;37998;53.416;6.730;2022-08-19T12:09:31;17.40;;;15.52;;
51981;SDS011;37998;53.416;6.730;2022-08-19T12:11:59;19.08;;;14.85;;
51981;SDS011;37998;53.416;6.730;2022-08-19T12:14:26;17.42;;;15.05;;
51981;SDS011;37998;53.416;6.730;2022-08-19T12:16:52;18.10;;;15.60;;
51981;SDS011;37998;53.416;6.730;2022-08-19T12:19:18;17.75;;;15.85;;
51981;SDS011;37998;53.416;6.730;2022-08-19T12:21:44;19.20;;;16.63;;
51981;SDS011;37998;53.416;6.730;2022-08-19T12:24:10;20.35;;;16.17;;
51981;SDS011;37998;53.416;6.730;2022-08-19T12:26:36;19.15;;;17.13;;
51981;SDS011;37998;53.416;6.730;2022-08-19T12:29:02;20.08;;;15.68;;
51981;SDS011;37998;53.416;6.730;2022-08-19T12:31:28;21.65;;;16.95;;
51981;SDS011;37998;53.416;6.730;2022-08-19T12:33:55;19.17;;;17.13;;
51981;SDS011;37998;53.416;6.730;2022-08-19T12:36:20;19.08;;;17.08;;
51981;SDS011;37998;53.416;6.730;2022-08-19T12:38:47;19.13;;;16.88;;
51981;SDS011;37998;53.416;6.730;2022-08-19T12:41:14;17.98;;;16.17;;
51981;SDS011;37998;53.416;6.730;2022-08-19T12:43:43;20.23;;;15.65;;
51981;SDS011;37998;53.416;6.730;2022-08-19T12:46:09;17.40;;;15.50;;
51981;SDS011;37998;53.416;6.730;2022-08-19T12:48:36;18.42;;;16.52;;
51981;SDS011;37998;53.416;6.730;2022-08-19T12:51:06;18.10;;;16.27;;
51981;SDS011;37998;53.416;6.730;2022-08-19T12:53:34;20.47;;;15.10;;
51981;SDS011;37998;53.416;6.730;2022-08-19T12:56:00;18.45;;;16.55;;
51981;SDS011;37998;53.416;6.730;2022-08-19T12:58:26;18.85;;;16.45;;
51981;SDS011;37998;53.416;6.730;2022-08-19T13:00:53;18.27;;;16.35;;
51981;SDS011;37998;53.416;6.730;2022-08-19T13:03:19;19.00;;;17.00;;
51981;SDS011;37998;53.416;6.730;2022-08-19T13:05:47;16.10;;;14.48;;
51981;SDS011;37998;53.416;6.730;2022-08-19T13:08:15;19.25;;;15.52;;
51981;SDS011;37998;53.416;6.730;2022-08-19T13:10:41;20.17;;;16.13;;
51981;SDS011;37998;53.416;6.730;2022-08-19T13:13:08;18.83;;;15.80;;
51981;SDS011;37998;53.416;6.730;2022-08-19T13:15:38;18.73;;;16.08;;
51981;SDS011;37998;53.416;6.730;2022-08-19T13:18:05;19.58;;;17.38;;
51981;SDS011;37998;53.416;6.730;2022-08-19T13:20:31;19.30;;;17.15;;
51981;SDS011;37998;53.416;6.730;2022-08-19T13:22:56;18.63;;;16.63;;
51981;SDS011;37998;53.416;6.730;2022-08-19T13:25:22;20.33;;;17.17;;
51981;SDS011;37998;53.416;6.730;2022-08-19T13:27:50;20.83;;;18.63;;
51981;SDS011;37998;53.416;6.730;2022-08-19T13:30:16;27.30;;;17.52;;
51981;SDS011;37998;53.416;6.730;2022-08-19T13:33:01;37.90;;;23.25;;
51981;SDS011;37998;53.416;6.730;2022-08-19T13:35:58;29.50;;;19.05;;
51981;SDS011;37998;53.416;6.730;2022-08-19T13:38:24;25.77;;;20.60;;
51981;SDS011;37998;53.416;6.730;2022-08-19T13:40:51;30.63;;;23.23;;
51981;SDS011;37998;53.416;6.730;2022-08-19T13:43:19;33.78;;;23.85;;
51981;SDS011;37998;53.416;6.730;2022-08-19T13:45:52;29.60;;;21.80;;
51981;SDS011;37998;53.416;6.730;2022-08-19T13:48:20;22.27;;;17.85;;
51981;SDS011;37998;53.416;6.730;2022-08-19T13:50:47;26.38;;;19.98;;
51981;SDS011;37998;53.416;6.730;2022-08-19T13:53:13;23.73;;;19.15;;
51981;SDS011;37998;53.416;6.730;2022-08-19T13:55:40;22.33;;;16.75;;
51981;SDS011;37998;53.416;6.730;2022-08-19T13:58:07;23.52;;;18.23;;
51981;SDS011;37998;53.416;6.730;2022-08-19T14:00:36;26.45;;;17.10;;
51981;SDS011;37998;53.416;6.730;2022-08-19T14:03:04;23.05;;;17.83;;
51981;SDS011;37998;53.416;6.730;2022-08-19T14:05:31;25.33;;;17.65;;
51981;SDS011;37998;53.416;6.730;2022-08-19T14:07:57;20.52;;;16.85;;
51981;SDS011;37998;53.416;6.730;2022-08-19T14:10:23;21.42;;;18.15;;
51981;SDS011;37998;53.416;6.730;2022-08-19T14:12:52;19.88;;;16.95;;
51981;SDS011;37998;53.416;6.730;2022-08-19T14:15:20;22.42;;;20.08;;
51981;SDS011;37998;53.416;6.730;2022-08-19T14:17:47;24.42;;;20.27;;
51981;SDS011;37998;53.416;6.730;2022-08-19T14:20:14;24.33;;;20.58;;
51981;SDS011;37998;53.416;6.730;2022-08-19T14:22:40;24.30;;;21.02;;
51981;SDS011;37998;53.416;6.730;2022-08-19T14:25:11;27.88;;;22.52;;
51981;SDS011;37998;53.416;6.730;2022-08-19T14:27:45;22.15;;;19.85;;
51981;SDS011;37998;53.416;6.730;2022-08-19T14:30:13;23.10;;;20.17;;
51981;SDS011;37998;53.416;6.730;2022-08-19T14:32:40;24.75;;;19.92;;
51981;SDS011;37998;53.416;6.730;2022-08-19T14:35:08;21.10;;;18.75;;
51981;SDS011;37998;53.416;6.730;2022-08-19T14:37:34;24.13;;;19.75;;
51981;SDS011;37998;53.416;6.730;2022-08-19T14:40:00;24.90;;;21.15;;
51981;SDS011;37998;53.416;6.730;2022-08-19T14:42:28;25.90;;;20.10;;
51981;SDS011;37998;53.416;6.730;2022-08-19T14:44:56;22.95;;;20.58;;
51981;SDS011;37998;53.416;6.730;2022-08-19T14:47:23;25.75;;;19.88;;
51981;SDS011;37998;53.416;6.730;2022-08-19T14:49:49;23.90;;;18.83;;